21kousinmaru — JD2168 — position and weather

sailwx.info

Track history (hours):
 
Tides and Currents Weather Stations Pressure Air Temp Water Temp Dewpoint Dewpoint Depression Visibility Wind Speed Wind Dir Waves Ship Positions

21kousinmaru

Last reported at 2018-Jan-20 05:34 UTC. Time now 2018-Jan-20 13:12 UTC.
Position N 34°57' E 139°44'.

Length 68 m; draft 4.5 m.

MMSI: 431501835.

Date/timePositionNaut miles runAvg speedWind from/ knotsBaromVisibWave heightAir tempDewpointWater temp
2018-Jan-20 05:34N 34°57' E 139°44'111.8
2018-Jan-20 05:30N 34°58' E 139°44'611.9
2018-Jan-20 05:00N 35°04' E 139°44'612.4
2018-Jan-20 04:31N 35°10' E 139°46'612.5
2018-Jan-20 04:00N 35°16' E 139°46'612.5
2018-Jan-20 03:30N 35°22' E 139°42'612.2
2018-Jan-20 03:00N 35°27' E 139°46'4 8.4
2018-Jan-20 02:30N 35°31' E 139°46'0 0.1
2018-Jan-20 02:00N 35°31' E 139°46'0 0.1
2018-Jan-20 01:31N 35°31' E 139°46'0 0.1
2018-Jan-20 01:00N 35°31' E 139°46'0 0.1
2018-Jan-20 00:31N 35°31' E 139°46'0 0.0
2018-Jan-20 00:00N 35°31' E 139°46'0 0.1
2018-Jan-19 23:30N 35°31' E 139°46'0 0.0
2018-Jan-19 23:00N 35°31' E 139°46'0 0.0
2018-Jan-19 22:30N 35°31' E 139°46'0 0.1
2018-Jan-19 22:00N 35°31' E 139°46'2 3.8
2018-Jan-19 21:30N 35°30' E 139°48'2 3.0
2018-Jan-19 21:00N 35°29' E 139°49'0 0.0
2018-Jan-19 20:30N 35°29' E 139°49'0 0.0
2018-Jan-19 20:00N 35°29' E 139°49'0 0.0
2018-Jan-19 19:30N 35°29' E 139°49'0 0.0
2018-Jan-19 19:00N 35°29' E 139°49'0 0.0
2018-Jan-19 18:30N 35°29' E 139°49'0 0.0
2018-Jan-19 18:00N 35°29' E 139°49'0 0.1
2018-Jan-19 17:30N 35°29' E 139°49'0 0.0
2018-Jan-19 16:57N 35°29' E 139°49'0 0.0
2018-Jan-19 16:24N 35°29' E 139°49'0 0.0
2018-Jan-19 16:00N 35°29' E 139°49'5 9.6
2018-Jan-19 15:31N 35°25' E 139°46'611.9
2018-Jan-19 15:01N 35°19' E 139°44'611.4
2018-Jan-19 14:30N 35°14' E 139°47'611.9
2018-Jan-19 13:59N 35°08' E 139°46'612.8
2018-Jan-19 13:30N 35°02' E 139°45'711.2
2018-Jan-19 12:53N 34°55' E 139°47'2 0.1
2018-Jan-18 15:02N 34°53' E 139°46'412.1
2018-Jan-18 14:41N 34°57' E 139°44'212.3
2018-Jan-18 14:29N 34°59' E 139°44'612.2
2018-Jan-18 14:00N 35°05' E 139°44'612.2
2018-Jan-18 13:30N 35°11' E 139°46'612.7
2018-Jan-18 13:00N 35°17' E 139°44'612.4
2018-Jan-18 12:31N 35°23' E 139°42'712.9
2018-Jan-18 12:00N 35°28' E 139°48'812.9
2018-Jan-18 11:24N 35°31' E 139°57'512.5
2018-Jan-18 11:00N 35°32' E 140°03'0 0.8
2018-Jan-18 10:27N 35°32' E 140°03'0 0.0
2018-Jan-18 10:00N 35°32' E 140°03'0 0.0
2018-Jan-18 09:30N 35°32' E 140°03'0 0.0
2018-Jan-18 09:00N 35°32' E 140°03'0 0.0
2018-Jan-18 08:30N 35°32' E 140°03'0 0.0
2018-Jan-18 08:00N 35°32' E 140°03'0 0.0
2018-Jan-18 07:30N 35°32' E 140°03'0 0.0
2018-Jan-18 07:00N 35°32' E 140°03'0 0.0
2018-Jan-18 06:30N 35°32' E 140°03'0 0.0
2018-Jan-18 06:00N 35°32' E 140°03'0 0.0
2018-Jan-18 05:30N 35°32' E 140°03'1 3.0
2018-Jan-18 05:00N 35°32' E 140°02'2 4.6
2018-Jan-18 04:30N 35°33' E 139°59'4 3.3
2018-Jan-18 03:23N 35°34' E 139°55'3 8.8
2018-Jan-18 02:59N 35°31' E 139°53'511.1
2018-Jan-18 02:30N 35°30' E 139°46'1 2.8
2018-Jan-18 02:01N 35°31' E 139°45'0 0.0
2018-Jan-18 01:30N 35°31' E 139°45'0 0.0
2018-Jan-18 01:01N 35°31' E 139°45'0 0.0
2018-Jan-18 00:01N 35°31' E 139°45'0 0.0
2018-Jan-17 23:58N 35°31' E 139°45'  
2018-Jan-12 14:58N 35°29' E 139°56'0 0.0
2018-Jan-12 14:13N 35°29' E 139°56'0 0.0
2018-Jan-12 13:49N 35°29' E 139°56'0 0.0
2018-Jan-12 13:28N 35°29' E 139°56'0 0.0
2018-Jan-12 12:55N 35°29' E 139°56'0 0.0
2018-Jan-12 11:58N 35°29' E 139°56'0 0.0
2018-Jan-12 11:22N 35°29' E 139°56'0 0.0
2018-Jan-12 10:55N 35°29' E 139°56'0 0.0
2018-Jan-12 10:25N 35°29' E 139°56'0 0.1
2018-Jan-12 10:01N 35°29' E 139°56'510.6
2018-Jan-12 09:30N 35°32' E 140°01'2 3.4
2018-Jan-12 09:00N 35°32' E 140°03'0 0.0
2018-Jan-12 08:18N 35°32' E 140°03'0 0.0
2018-Jan-12 07:55N 35°32' E 140°03'0 0.0
2018-Jan-12 07:27N 35°32' E 140°03'0 0.0
2018-Jan-12 06:57N 35°32' E 140°03'0 0.0
2018-Jan-12 06:20N 35°32' E 140°03'0 0.0
2018-Jan-12 05:58N 35°32' E 140°03'0 0.0
2018-Jan-12 05:28N 35°32' E 140°03'1 2.2
2018-Jan-12 05:00N 35°32' E 140°02'0 0.4
2018-Jan-12 04:30N 35°32' E 140°02'0 0.2
2018-Jan-12 04:00N 35°32' E 140°02'1 2.9
2018-Jan-12 03:31N 35°31' E 140°01'510.2
2018-Jan-12 03:00N 35°28' E 139°56'0 0.1
2018-Jan-12 02:18N 35°28' E 139°56'0 0.0
2018-Jan-12 02:00N 35°28' E 139°56'0 0.0
2018-Jan-12 01:30N 35°28' E 139°56'0 0.0
2018-Jan-12 00:54N 35°28' E 139°56'0 0.0
2018-Jan-12 00:21N 35°28' E 139°56'0 0.0
2018-Jan-11 23:57N 35°28' E 139°56'0 0.0
2018-Jan-11 23:30N 35°28' E 139°56'0 0.0
2018-Jan-11 22:36N 35°28' E 139°56'0 0.0
2018-Jan-11 22:06N 35°28' E 139°56'0 0.0
2018-Jan-11 22:00N 35°28' E 139°56'0 0.0
2018-Jan-11 21:18N 35°28' E 139°56'0 0.2
2018-Jan-11 21:00N 35°28' E 139°56'0 0.0
2018-Jan-11 20:30N 35°28' E 139°56'0 0.0
2018-Jan-11 20:00N 35°28' E 139°56'0 0.0
2018-Jan-11 19:30N 35°28' E 139°56'0 0.0
2018-Jan-11 19:00N 35°28' E 139°56'0 0.1
2018-Jan-11 18:27N 35°28' E 139°56'0 0.0
2018-Jan-11 18:00N 35°28' E 139°56'0 0.0
2018-Jan-11 17:27N 35°28' E 139°56'0 0.0
2018-Jan-11 16:45N 35°28' E 139°56'0 0.0
2018-Jan-11 16:30N 35°28' E 139°56'0 0.0
2018-Jan-11 15:51N 35°28' E 139°56'0 0.0
2018-Jan-11 15:27N 35°28' E 139°56'0 0.0
2018-Jan-11 14:57N 35°28' E 139°56'0 0.0
2018-Jan-11 14:27N 35°28' E 139°56'0 0.0
2018-Jan-11 13:51N 35°28' E 139°56'0 0.0
2018-Jan-11 13:30N 35°28' E 139°56'0 0.0
2018-Jan-11 12:54N 35°28' E 139°56'0 0.0
2018-Jan-11 12:24N 35°28' E 139°56'0 0.0
2018-Jan-11 11:18N 35°28' E 139°56'0 0.0
2018-Jan-11 10:57N 35°28' E 139°56'0 0.0
2018-Jan-11 10:24N 35°28' E 139°56'0 0.0
2018-Jan-11 10:00N 35°29' E 139°56'0 0.0
2018-Jan-11 09:30N 35°28' E 139°56'0 0.0
2018-Jan-11 09:00N 35°28' E 139°56'0 0.0
2018-Jan-11 08:24N 35°29' E 139°56'0 0.0
2018-Jan-11 07:57N 35°29' E 139°56'0 0.0
2018-Jan-11 07:24N 35°29' E 139°56'0 0.0
2018-Jan-11 07:00N 35°29' E 139°56'0 0.0
2018-Jan-11 06:30N 35°29' E 139°56'0 0.0
2018-Jan-11 05:57N 35°29' E 139°56'0 0.0
2018-Jan-11 05:24N 35°29' E 139°56'0 0.0
2018-Jan-11 05:00N 35°29' E 139°56'0 0.0
2018-Jan-11 04:30N 35°29' E 139°56'0 0.0
2018-Jan-11 03:51N 35°29' E 139°56'0 0.2
2018-Jan-11 03:30N 35°29' E 139°56'3 1.0
2018-Jan-11 00:05N 35°28' E 139°60'0 1.9
2018-Jan-11 00:00N 35°28' E 139°60'3 5.8
2018-Jan-10 23:26N 35°29' E 139°56'0 0.0
2018-Jan-10 22:59N 35°29' E 139°56'0 0.0
2018-Jan-10 22:26N 35°29' E 139°56'0 0.0
2018-Jan-10 21:53N 35°29' E 139°56'0 0.0
2018-Jan-10 21:26N 35°29' E 139°56'0 0.0
2018-Jan-10 20:41N 35°29' E 139°56'0 0.0
2018-Jan-10 20:29N 35°29' E 139°56'0 0.0
2018-Jan-10 19:59N 35°29' E 139°56'0 0.0
2018-Jan-10 19:29N 35°29' E 139°56'0 0.0
2018-Jan-10 18:47N 35°29' E 139°56'0 0.0
2018-Jan-10 18:29N 35°29' E 139°56'0 0.0
2018-Jan-10 17:59N 35°29' E 139°56'0 0.1
2018-Jan-10 17:26N 35°29' E 139°56'0 0.1
2018-Jan-10 16:59N 35°29' E 139°56'0 0.0
2018-Jan-10 16:26N 35°29' E 139°56'0 0.0
2018-Jan-10 15:16N 35°29' E 139°56'0 0.0
2018-Jan-10 14:58N 35°29' E 139°56'0 0.0
2018-Jan-10 14:28N 35°29' E 139°56'0 0.0
2018-Jan-10 13:55N 35°29' E 139°56'0 0.0
2018-Jan-10 13:25N 35°29' E 139°56'0 0.0
2018-Jan-10 12:58N 35°29' E 139°56'0 0.0
2018-Jan-10 12:16N 35°29' E 139°56'0 0.0
2018-Jan-10 10:55N 35°29' E 139°56'0 0.0
2018-Jan-10 10:28N 35°29' E 139°56'0 0.0
2018-Jan-10 09:52N 35°29' E 139°56'0 0.0
2018-Jan-10 09:28N 35°29' E 139°56'0 0.0
2018-Jan-10 08:58N 35°29' E 139°56'0 0.0
2018-Jan-10 07:52N 35°29' E 139°56'0 0.0
2018-Jan-10 07:28N 35°29' E 139°56'0 0.0
2018-Jan-10 06:22N 35°29' E 139°56'0 0.0
2018-Jan-10 05:52N 35°29' E 139°56'  
Track history (hours):
 
Tides and Currents Weather Stations Pressure Air Temp Water Temp Dewpoint Dewpoint Depression Visibility Wind Speed Wind Dir Waves Ship Positions

21kousinmaru

Last reported at 2018-Jan-20 05:34 UTC. Time now 2018-Jan-20 13:12 UTC.
Position N 34°57' E 139°44'.

Length 68 m; draft 4.5 m.

MMSI: 431501835.

Date/timePositionNaut miles runAvg speedWind from/ knotsBaromVisibWave heightAir tempDewpointWater temp
2018-Jan-20 05:34N 34°57' E 139°44'111.8
2018-Jan-20 05:30N 34°58' E 139°44'611.9
2018-Jan-20 05:00N 35°04' E 139°44'612.4
2018-Jan-20 04:31N 35°10' E 139°46'612.5
2018-Jan-20 04:00N 35°16' E 139°46'612.5
2018-Jan-20 03:30N 35°22' E 139°42'612.2
2018-Jan-20 03:00N 35°27' E 139°46'4 8.4
2018-Jan-20 02:30N 35°31' E 139°46'0 0.1
2018-Jan-20 02:00N 35°31' E 139°46'0 0.1
2018-Jan-20 01:31N 35°31' E 139°46'0 0.1
2018-Jan-20 01:00N 35°31' E 139°46'0 0.1
2018-Jan-20 00:31N 35°31' E 139°46'0 0.0
2018-Jan-20 00:00N 35°31' E 139°46'0 0.1
2018-Jan-19 23:30N 35°31' E 139°46'0 0.0
2018-Jan-19 23:00N 35°31' E 139°46'0 0.0
2018-Jan-19 22:30N 35°31' E 139°46'0 0.1
2018-Jan-19 22:00N 35°31' E 139°46'2 3.8
2018-Jan-19 21:30N 35°30' E 139°48'2 3.0
2018-Jan-19 21:00N 35°29' E 139°49'0 0.0
2018-Jan-19 20:30N 35°29' E 139°49'0 0.0
2018-Jan-19 20:00N 35°29' E 139°49'0 0.0
2018-Jan-19 19:30N 35°29' E 139°49'0 0.0
2018-Jan-19 19:00N 35°29' E 139°49'0 0.0
2018-Jan-19 18:30N 35°29' E 139°49'0 0.0
2018-Jan-19 18:00N 35°29' E 139°49'0 0.1
2018-Jan-19 17:30N 35°29' E 139°49'0 0.0
2018-Jan-19 16:57N 35°29' E 139°49'0 0.0
2018-Jan-19 16:24N 35°29' E 139°49'0 0.0
2018-Jan-19 16:00N 35°29' E 139°49'5 9.6
2018-Jan-19 15:31N 35°25' E 139°46'611.9
2018-Jan-19 15:01N 35°19' E 139°44'611.4
2018-Jan-19 14:30N 35°14' E 139°47'611.9
2018-Jan-19 13:59N 35°08' E 139°46'612.8
2018-Jan-19 13:30N 35°02' E 139°45'711.2
2018-Jan-19 12:53N 34°55' E 139°47'2 0.1
2018-Jan-18 15:02N 34°53' E 139°46'412.1
2018-Jan-18 14:41N 34°57' E 139°44'212.3
2018-Jan-18 14:29N 34°59' E 139°44'612.2
2018-Jan-18 14:00N 35°05' E 139°44'612.2
2018-Jan-18 13:30N 35°11' E 139°46'612.7
2018-Jan-18 13:00N 35°17' E 139°44'612.4
2018-Jan-18 12:31N 35°23' E 139°42'712.9
2018-Jan-18 12:00N 35°28' E 139°48'812.9
2018-Jan-18 11:24N 35°31' E 139°57'512.5
2018-Jan-18 11:00N 35°32' E 140°03'0 0.8
2018-Jan-18 10:27N 35°32' E 140°03'0 0.0
2018-Jan-18 10:00N 35°32' E 140°03'0 0.0
2018-Jan-18 09:30N 35°32' E 140°03'0 0.0
2018-Jan-18 09:00N 35°32' E 140°03'0 0.0
2018-Jan-18 08:30N 35°32' E 140°03'0 0.0
2018-Jan-18 08:00N 35°32' E 140°03'0 0.0
2018-Jan-18 07:30N 35°32' E 140°03'0 0.0
2018-Jan-18 07:00N 35°32' E 140°03'0 0.0
2018-Jan-18 06:30N 35°32' E 140°03'0 0.0
2018-Jan-18 06:00N 35°32' E 140°03'0 0.0
2018-Jan-18 05:30N 35°32' E 140°03'1 3.0
2018-Jan-18 05:00N 35°32' E 140°02'2 4.6
2018-Jan-18 04:30N 35°33' E 139°59'4 3.3
2018-Jan-18 03:23N 35°34' E 139°55'3 8.8
2018-Jan-18 02:59N 35°31' E 139°53'511.1
2018-Jan-18 02:30N 35°30' E 139°46'1 2.8
2018-Jan-18 02:01N 35°31' E 139°45'0 0.0
2018-Jan-18 01:30N 35°31' E 139°45'0 0.0
2018-Jan-18 01:01N 35°31' E 139°45'0 0.0
2018-Jan-18 00:01N 35°31' E 139°45'0 0.0
2018-Jan-17 23:58N 35°31' E 139°45'  
2018-Jan-12 14:58N 35°29' E 139°56'0 0.0
2018-Jan-12 14:13N 35°29' E 139°56'0 0.0
2018-Jan-12 13:49N 35°29' E 139°56'0 0.0
2018-Jan-12 13:28N 35°29' E 139°56'0 0.0
2018-Jan-12 12:55N 35°29' E 139°56'0 0.0
2018-Jan-12 11:58N 35°29' E 139°56'0 0.0
2018-Jan-12 11:22N 35°29' E 139°56'0 0.0
2018-Jan-12 10:55N 35°29' E 139°56'0 0.0
2018-Jan-12 10:25N 35°29' E 139°56'0 0.1
2018-Jan-12 10:01N 35°29' E 139°56'510.6
2018-Jan-12 09:30N 35°32' E 140°01'2 3.4
2018-Jan-12 09:00N 35°32' E 140°03'0 0.0
2018-Jan-12 08:18N 35°32' E 140°03'0 0.0
2018-Jan-12 07:55N 35°32' E 140°03'0 0.0
2018-Jan-12 07:27N 35°32' E 140°03'0 0.0
2018-Jan-12 06:57N 35°32' E 140°03'0 0.0
2018-Jan-12 06:20N 35°32' E 140°03'0 0.0
2018-Jan-12 05:58N 35°32' E 140°03'0 0.0
2018-Jan-12 05:28N 35°32' E 140°03'1 2.2
2018-Jan-12 05:00N 35°32' E 140°02'0 0.4
2018-Jan-12 04:30N 35°32' E 140°02'0 0.2
2018-Jan-12 04:00N 35°32' E 140°02'1 2.9
2018-Jan-12 03:31N 35°31' E 140°01'510.2
2018-Jan-12 03:00N 35°28' E 139°56'0 0.1
2018-Jan-12 02:18N 35°28' E 139°56'0 0.0
2018-Jan-12 02:00N 35°28' E 139°56'0 0.0
2018-Jan-12 01:30N 35°28' E 139°56'0 0.0
2018-Jan-12 00:54N 35°28' E 139°56'0 0.0
2018-Jan-12 00:21N 35°28' E 139°56'0 0.0
2018-Jan-11 23:57N 35°28' E 139°56'0 0.0
2018-Jan-11 23:30N 35°28' E 139°56'0 0.0
2018-Jan-11 22:36N 35°28' E 139°56'0 0.0
2018-Jan-11 22:06N 35°28' E 139°56'0 0.0
2018-Jan-11 22:00N 35°28' E 139°56'0 0.0
2018-Jan-11 21:18N 35°28' E 139°56'0 0.2
2018-Jan-11 21:00N 35°28' E 139°56'0 0.0
2018-Jan-11 20:30N 35°28' E 139°56'0 0.0
2018-Jan-11 20:00N 35°28' E 139°56'0 0.0
2018-Jan-11 19:30N 35°28' E 139°56'0 0.0
2018-Jan-11 19:00N 35°28' E 139°56'0 0.1
2018-Jan-11 18:27N 35°28' E 139°56'0 0.0
2018-Jan-11 18:00N 35°28' E 139°56'0 0.0
2018-Jan-11 17:27N 35°28' E 139°56'0 0.0
2018-Jan-11 16:45N 35°28' E 139°56'0 0.0
2018-Jan-11 16:30N 35°28' E 139°56'0 0.0
2018-Jan-11 15:51N 35°28' E 139°56'0 0.0
2018-Jan-11 15:27N 35°28' E 139°56'0 0.0
2018-Jan-11 14:57N 35°28' E 139°56'0 0.0
2018-Jan-11 14:27N 35°28' E 139°56'0 0.0
2018-Jan-11 13:51N 35°28' E 139°56'0 0.0
2018-Jan-11 13:30N 35°28' E 139°56'0 0.0
2018-Jan-11 12:54N 35°28' E 139°56'0 0.0
2018-Jan-11 12:24N 35°28' E 139°56'0 0.0
2018-Jan-11 11:18N 35°28' E 139°56'0 0.0
2018-Jan-11 10:57N 35°28' E 139°56'0 0.0
2018-Jan-11 10:24N 35°28' E 139°56'0 0.0
2018-Jan-11 10:00N 35°29' E 139°56'0 0.0
2018-Jan-11 09:30N 35°28' E 139°56'0 0.0
2018-Jan-11 09:00N 35°28' E 139°56'0 0.0
2018-Jan-11 08:24N 35°29' E 139°56'0 0.0
2018-Jan-11 07:57N 35°29' E 139°56'0 0.0
2018-Jan-11 07:24N 35°29' E 139°56'0 0.0
2018-Jan-11 07:00N 35°29' E 139°56'0 0.0
2018-Jan-11 06:30N 35°29' E 139°56'0 0.0
2018-Jan-11 05:57N 35°29' E 139°56'0 0.0
2018-Jan-11 05:24N 35°29' E 139°56'0 0.0
2018-Jan-11 05:00N 35°29' E 139°56'0 0.0
2018-Jan-11 04:30N 35°29' E 139°56'0 0.0
2018-Jan-11 03:51N 35°29' E 139°56'0 0.2
2018-Jan-11 03:30N 35°29' E 139°56'3 1.0
2018-Jan-11 00:05N 35°28' E 139°60'0 1.9
2018-Jan-11 00:00N 35°28' E 139°60'3 5.8
2018-Jan-10 23:26N 35°29' E 139°56'0 0.0
2018-Jan-10 22:59N 35°29' E 139°56'0 0.0
2018-Jan-10 22:26N 35°29' E 139°56'0 0.0
2018-Jan-10 21:53N 35°29' E 139°56'0 0.0
2018-Jan-10 21:26N 35°29' E 139°56'0 0.0
2018-Jan-10 20:41N 35°29' E 139°56'0 0.0
2018-Jan-10 20:29N 35°29' E 139°56'0 0.0
2018-Jan-10 19:59N 35°29' E 139°56'0 0.0
2018-Jan-10 19:29N 35°29' E 139°56'0 0.0
2018-Jan-10 18:47N 35°29' E 139°56'0 0.0
2018-Jan-10 18:29N 35°29' E 139°56'0 0.0
2018-Jan-10 17:59N 35°29' E 139°56'0 0.1
2018-Jan-10 17:26N 35°29' E 139°56'0 0.1
2018-Jan-10 16:59N 35°29' E 139°56'0 0.0
2018-Jan-10 16:26N 35°29' E 139°56'0 0.0
2018-Jan-10 15:16N 35°29' E 139°56'0 0.0
2018-Jan-10 14:58N 35°29' E 139°56'0 0.0
2018-Jan-10 14:28N 35°29' E 139°56'0 0.0
2018-Jan-10 13:55N 35°29' E 139°56'0 0.0
2018-Jan-10 13:25N 35°29' E 139°56'0 0.0
2018-Jan-10 12:58N 35°29' E 139°56'0 0.0
2018-Jan-10 12:16N 35°29' E 139°56'0 0.0
2018-Jan-10 10:55N 35°29' E 139°56'0 0.0
2018-Jan-10 10:28N 35°29' E 139°56'0 0.0
2018-Jan-10 09:52N 35°29' E 139°56'0 0.0
2018-Jan-10 09:28N 35°29' E 139°56'0 0.0
2018-Jan-10 08:58N 35°29' E 139°56'0 0.0
2018-Jan-10 07:52N 35°29' E 139°56'0 0.0
2018-Jan-10 07:28N 35°29' E 139°56'0 0.0
2018-Jan-10 06:22N 35°29' E 139°56'0 0.0
2018-Jan-10 05:52N 35°29' E 139°56'  

Dump ship's entire track history